sensor_id;sensor_type;location;lat;lon;timestamp;temperature;humidity
68480;DHT22;55469;48.934;12.050;2022-10-10T00:01:22;11.40;91.10
68480;DHT22;55469;48.934;12.050;2022-10-10T00:03:48;11.40;91.10
68480;DHT22;55469;48.934;12.050;2022-10-10T00:06:15;11.40;91.10
68480;DHT22;55469;48.934;12.050;2022-10-10T00:08:42;11.40;91.20
68480;DHT22;55469;48.934;12.050;2022-10-10T00:11:08;11.40;91.20
68480;DHT22;55469;48.934;12.050;2022-10-10T00:13:35;11.40;91.10
68480;DHT22;55469;48.934;12.050;2022-10-10T00:16:01;11.30;91.10
68480;DHT22;55469;48.934;12.050;2022-10-10T00:18:28;11.40;91.10
68480;DHT22;55469;48.934;12.050;2022-10-10T00:20:54;11.40;91.10
68480;DHT22;55469;48.934;12.050;2022-10-10T00:23:20;11.40;91.10
68480;DHT22;55469;48.934;12.050;2022-10-10T00:25:48;11.40;91.10
68480;DHT22;55469;48.934;12.050;2022-10-10T00:28:14;11.40;91.20
68480;DHT22;55469;48.934;12.050;2022-10-10T00:30:40;11.40;91.20
68480;DHT22;55469;48.934;12.050;2022-10-10T00:33:06;11.40;91.20
68480;DHT22;55469;48.934;12.050;2022-10-10T00:35:32;11.30;91.20
68480;DHT22;55469;48.934;12.050;2022-10-10T00:37:58;11.30;91.20
68480;DHT22;55469;48.934;12.050;2022-10-10T00:40:24;11.30;91.20
68480;DHT22;55469;48.934;12.050;2022-10-10T00:42:50;11.30;91.20
68480;DHT22;55469;48.934;12.050;2022-10-10T00:45:37;11.30;91.20
68480;DHT22;55469;48.934;12.050;2022-10-10T00:48:14;11.30;91.20
68480;DHT22;55469;48.934;12.050;2022-10-10T00:50:55;11.30;91.20
68480;DHT22;55469;48.934;12.050;2022-10-10T00:53:35;11.30;91.20
68480;DHT22;55469;48.934;12.050;2022-10-10T00:56:03;11.30;91.30
68480;DHT22;55469;48.934;12.050;2022-10-10T00:58:30;11.30;91.20
68480;DHT22;55469;48.934;12.050;2022-10-10T01:00:57;11.20;91.20
68480;DHT22;55469;48.934;12.050;2022-10-10T01:03:23;11.20;91.20
68480;DHT22;55469;48.934;12.050;2022-10-10T01:05:49;11.20;91.20
68480;DHT22;55469;48.934;12.050;2022-10-10T01:08:16;11.20;91.30
68480;DHT22;55469;48.934;12.050;2022-10-10T01:13:37;11.20;91.30
68480;DHT22;55469;48.934;12.050;2022-10-10T01:16:18;11.20;91.30
68480;DHT22;55469;48.934;12.050;2022-10-10T01:24:35;11.20;91.30
68480;DHT22;55469;48.934;12.050;2022-10-10T01:27:33;11.20;91.30
68480;DHT22;55469;48.934;12.050;2022-10-10T01:30:05;11.20;91.30
68480;DHT22;55469;48.934;12.050;2022-10-10T01:40:54;11.20;91.30
68480;DHT22;55469;48.934;12.050;2022-10-10T01:43:23;11.20;91.30
68480;DHT22;55469;48.934;12.050;2022-10-10T01:45:52;11.10;91.30
68480;DHT22;55469;48.934;12.050;2022-10-10T01:48:29;11.10;91.30
68480;DHT22;55469;48.934;12.050;2022-10-10T01:57:32;11.10;91.30
68480;DHT22;55469;48.934;12.050;2022-10-10T02:00:12;11.10;91.40
68480;DHT22;55469;48.934;12.050;2022-10-10T02:05:26;11.10;91.30
68480;DHT22;55469;48.934;12.050;2022-10-10T02:07:59;11.10;91.30
68480;DHT22;55469;48.934;12.050;2022-10-10T02:10:31;11.10;91.30
68480;DHT22;55469;48.934;12.050;2022-10-10T02:13:01;11.10;91.30
68480;DHT22;55469;48.934;12.050;2022-10-10T02:15:35;11.10;91.30
68480;DHT22;55469;48.934;12.050;2022-10-10T02:18:06;11.10;91.30
68480;DHT22;55469;48.934;12.050;2022-10-10T02:20:34;11.10;91.30
68480;DHT22;55469;48.934;12.050;2022-10-10T02:23:01;11.00;91.30
68480;DHT22;55469;48.934;12.050;2022-10-10T02:25:30;11.00;91.40
68480;DHT22;55469;48.934;12.050;2022-10-10T02:28:11;11.00;91.40
68480;DHT22;55469;48.934;12.050;2022-10-10T02:30:51;11.00;91.40
68480;DHT22;55469;48.934;12.050;2022-10-10T02:33:26;11.00;91.40
68480;DHT22;55469;48.934;12.050;2022-10-10T02:35:56;11.00;91.10
68480;DHT22;55469;48.934;12.050;2022-10-10T02:38:24;11.00;91.40
68480;DHT22;55469;48.934;12.050;2022-10-10T02:40:50;11.00;91.50
68480;DHT22;55469;48.934;12.050;2022-10-10T02:43:18;11.00;91.40
68480;DHT22;55469;48.934;12.050;2022-10-10T02:45:44;11.00;91.40
68480;DHT22;55469;48.934;12.050;2022-10-10T02:48:09;11.00;91.40
68480;DHT22;55469;48.934;12.050;2022-10-10T02:50:35;11.00;91.40
68480;DHT22;55469;48.934;12.050;2022-10-10T02:53:01;11.00;91.40
68480;DHT22;55469;48.934;12.050;2022-10-10T02:55:27;10.90;91.40
68480;DHT22;55469;48.934;12.050;2022-10-10T02:57:52;10.90;91.40
68480;DHT22;55469;48.934;12.050;2022-10-10T03:00:22;10.90;91.40
68480;DHT22;55469;48.934;12.050;2022-10-10T03:02:47;10.90;91.40
68480;DHT22;55469;48.934;12.050;2022-10-10T03:05:13;10.90;91.40
68480;DHT22;55469;48.934;12.050;2022-10-10T03:07:39;10.90;91.40
68480;DHT22;55469;48.934;12.050;2022-10-10T03:10:05;10.90;91.50
68480;DHT22;55469;48.934;12.050;2022-10-10T03:12:33;10.90;91.50
68480;DHT22;55469;48.934;12.050;2022-10-10T03:14:59;10.90;91.50
68480;DHT22;55469;48.934;12.050;2022-10-10T03:17:24;10.80;91.50
68480;DHT22;55469;48.934;12.050;2022-10-10T03:19:50;10.90;91.50
68480;DHT22;55469;48.934;12.050;2022-10-10T03:22:16;10.90;91.50
68480;DHT22;55469;48.934;12.050;2022-10-10T03:24:41;10.90;91.50
68480;DHT22;55469;48.934;12.050;2022-10-10T03:27:07;10.90;91.40
68480;DHT22;55469;48.934;12.050;2022-10-10T03:29:33;10.80;91.40
68480;DHT22;55469;48.934;12.050;2022-10-10T03:31:59;10.80;91.40
68480;DHT22;55469;48.934;12.050;2022-10-10T03:34:24;10.80;91.90
68480;DHT22;55469;48.934;12.050;2022-10-10T03:36:51;10.90;91.50
68480;DHT22;55469;48.934;12.050;2022-10-10T03:39:17;10.80;91.50
68480;DHT22;55469;48.934;12.050;2022-10-10T03:41:42;10.80;91.50
68480;DHT22;55469;48.934;12.050;2022-10-10T03:44:08;10.80;91.50
68480;DHT22;55469;48.934;12.050;2022-10-10T03:46:34;10.80;91.50
68480;DHT22;55469;48.934;12.050;2022-10-10T03:49:00;10.70;91.50
68480;DHT22;55469;48.934;12.050;2022-10-10T03:51:25;10.70;91.50
68480;DHT22;55469;48.934;12.050;2022-10-10T03:53:51;10.70;91.60
68480;DHT22;55469;48.934;12.050;2022-10-10T03:56:18;10.70;91.60
68480;DHT22;55469;48.934;12.050;2022-10-10T03:58:44;10.70;91.60
68480;DHT22;55469;48.934;12.050;2022-10-10T04:01:11;10.70;91.60
68480;DHT22;55469;48.934;12.050;2022-10-10T04:03:37;10.70;91.60
68480;DHT22;55469;48.934;12.050;2022-10-10T04:06:02;10.70;91.60
68480;DHT22;55469;48.934;12.050;2022-10-10T04:08:28;10.70;91.60
68480;DHT22;55469;48.934;12.050;2022-10-10T04:10:55;10.70;91.60
68480;DHT22;55469;48.934;12.050;2022-10-10T04:13:21;10.70;91.60
68480;DHT22;55469;48.934;12.050;2022-10-10T04:15:54;10.70;91.60
68480;DHT22;55469;48.934;12.050;2022-10-10T04:18:21;10.70;91.60
68480;DHT22;55469;48.934;12.050;2022-10-10T04:20:47;10.70;91.60
68480;DHT22;55469;48.934;12.050;2022-10-10T04:23:13;10.60;91.60
68480;DHT22;55469;48.934;12.050;2022-10-10T04:25:39;10.60;91.60
68480;DHT22;55469;48.934;12.050;2022-10-10T04:28:06;10.60;91.60
68480;DHT22;55469;48.934;12.050;2022-10-10T04:30:35;10.60;91.60
68480;DHT22;55469;48.934;12.050;2022-10-10T04:33:01;10.60;91.60
68480;DHT22;55469;48.934;12.050;2022-10-10T04:35:27;10.60;91.60
68480;DHT22;55469;48.934;12.050;2022-10-10T04:37:53;10.60;91.70
68480;DHT22;55469;48.934;12.050;2022-10-10T04:40:19;10.60;91.70
68480;DHT22;55469;48.934;12.050;2022-10-10T04:42:44;10.60;91.60
68480;DHT22;55469;48.934;12.050;2022-10-10T04:45:10;10.50;91.60
68480;DHT22;55469;48.934;12.050;2022-10-10T04:47:36;10.60;91.70
68480;DHT22;55469;48.934;12.050;2022-10-10T04:50:02;10.50;91.70
68480;DHT22;55469;48.934;12.050;2022-10-10T04:52:28;10.50;91.70
68480;DHT22;55469;48.934;12.050;2022-10-10T04:54:54;10.50;91.70
68480;DHT22;55469;48.934;12.050;2022-10-10T04:57:19;10.50;91.70
68480;DHT22;55469;48.934;12.050;2022-10-10T04:59:45;10.50;91.70
68480;DHT22;55469;48.934;12.050;2022-10-10T05:02:11;10.40;91.70
68480;DHT22;55469;48.934;12.050;2022-10-10T05:04:37;10.50;91.90
68480;DHT22;55469;48.934;12.050;2022-10-10T05:07:02;10.50;91.60
68480;DHT22;55469;48.934;12.050;2022-10-10T05:09:28;10.50;91.70
68480;DHT22;55469;48.934;12.050;2022-10-10T05:11:54;10.50;91.70
68480;DHT22;55469;48.934;12.050;2022-10-10T05:14:19;10.50;91.70
68480;DHT22;55469;48.934;12.050;2022-10-10T05:16:45;10.40;91.70
68480;DHT22;55469;48.934;12.050;2022-10-10T05:19:11;10.40;91.70
68480;DHT22;55469;48.934;12.050;2022-10-10T05:21:37;10.40;91.70
68480;DHT22;55469;48.934;12.050;2022-10-10T05:24:02;10.40;91.70
68480;DHT22;55469;48.934;12.050;2022-10-10T05:26:28;10.40;91.70
68480;DHT22;55469;48.934;12.050;2022-10-10T05:28:54;10.40;91.70
68480;DHT22;55469;48.934;12.050;2022-10-10T05:31:20;10.40;91.70
68480;DHT22;55469;48.934;12.050;2022-10-10T05:33:46;10.40;91.70
68480;DHT22;55469;48.934;12.050;2022-10-10T05:36:13;10.40;91.70
68480;DHT22;55469;48.934;12.050;2022-10-10T05:38:40;10.40;91.70
68480;DHT22;55469;48.934;12.050;2022-10-10T05:41:07;10.30;91.70
68480;DHT22;55469;48.934;12.050;2022-10-10T05:43:33;10.30;91.70
68480;DHT22;55469;48.934;12.050;2022-10-10T05:46:00;10.40;91.70
68480;DHT22;55469;48.934;12.050;2022-10-10T05:48:26;10.40;91.70
68480;DHT22;55469;48.934;12.050;2022-10-10T05:50:57;10.30;91.70
68480;DHT22;55469;48.934;12.050;2022-10-10T05:53:25;10.40;91.70
68480;DHT22;55469;48.934;12.050;2022-10-10T05:55:51;10.30;91.70
68480;DHT22;55469;48.934;12.050;2022-10-10T05:58:17;10.40;91.70
68480;DHT22;55469;48.934;12.050;2022-10-10T06:00:44;10.40;91.60
68480;DHT22;55469;48.934;12.050;2022-10-10T06:03:13;10.40;91.60
68480;DHT22;55469;48.934;12.050;2022-10-10T06:05:44;10.40;91.60
68480;DHT22;55469;48.934;12.050;2022-10-10T06:08:13;10.40;91.50
68480;DHT22;55469;48.934;12.050;2022-10-10T06:10:42;10.40;91.50
68480;DHT22;55469;48.934;12.050;2022-10-10T06:13:10;10.40;91.50
68480;DHT22;55469;48.934;12.050;2022-10-10T06:15:36;10.40;91.50
68480;DHT22;55469;48.934;12.050;2022-10-10T06:18:02;10.40;91.40
68480;DHT22;55469;48.934;12.050;2022-10-10T06:20:33;10.40;91.40
68480;DHT22;55469;48.934;12.050;2022-10-10T06:23:00;10.50;91.40
68480;DHT22;55469;48.934;12.050;2022-10-10T06:25:26;10.50;91.30
68480;DHT22;55469;48.934;12.050;2022-10-10T06:27:52;10.40;91.30
68480;DHT22;55469;48.934;12.050;2022-10-10T06:30:18;10.40;91.30
68480;DHT22;55469;48.934;12.050;2022-10-10T06:32:44;10.50;91.30
68480;DHT22;55469;48.934;12.050;2022-10-10T06:35:09;10.50;91.30
68480;DHT22;55469;48.934;12.050;2022-10-10T06:37:35;10.50;91.30
68480;DHT22;55469;48.934;12.050;2022-10-10T06:40:02;10.50;91.20
68480;DHT22;55469;48.934;12.050;2022-10-10T06:42:27;10.50;91.20
68480;DHT22;55469;48.934;12.050;2022-10-10T06:44:53;10.50;91.20
68480;DHT22;55469;48.934;12.050;2022-10-10T06:47:19;10.50;91.20
68480;DHT22;55469;48.934;12.050;2022-10-10T06:49:45;10.50;91.10
68480;DHT22;55469;48.934;12.050;2022-10-10T06:52:10;10.50;91.10
68480;DHT22;55469;48.934;12.050;2022-10-10T06:54:36;10.50;91.10
68480;DHT22;55469;48.934;12.050;2022-10-10T06:57:02;10.50;91.20
68480;DHT22;55469;48.934;12.050;2022-10-10T06:59:28;10.50;91.20
68480;DHT22;55469;48.934;12.050;2022-10-10T07:01:53;10.50;91.10
68480;DHT22;55469;48.934;12.050;2022-10-10T07:04:19;10.50;91.20
68480;DHT22;55469;48.934;12.050;2022-10-10T07:06:45;10.50;91.10
68480;DHT22;55469;48.934;12.050;2022-10-10T07:09:10;10.50;91.10
68480;DHT22;55469;48.934;12.050;2022-10-10T07:11:36;10.50;91.20
68480;DHT22;55469;48.934;12.050;2022-10-10T07:14:02;10.50;91.10
68480;DHT22;55469;48.934;12.050;2022-10-10T07:16:28;10.50;91.20
68480;DHT22;55469;48.934;12.050;2022-10-10T07:18:53;10.50;91.10
68480;DHT22;55469;48.934;12.050;2022-10-10T07:21:19;10.50;91.10
68480;DHT22;55469;48.934;12.050;2022-10-10T07:23:45;10.40;91.10
68480;DHT22;55469;48.934;12.050;2022-10-10T07:26:15;10.50;91.10
68480;DHT22;55469;48.934;12.050;2022-10-10T07:28:45;10.50;91.10
68480;DHT22;55469;48.934;12.050;2022-10-10T07:31:10;10.50;91.10
68480;DHT22;55469;48.934;12.050;2022-10-10T07:33:44;10.50;91.10
68480;DHT22;55469;48.934;12.050;2022-10-10T07:36:11;10.50;91.10
68480;DHT22;55469;48.934;12.050;2022-10-10T07:38:37;10.50;91.10
68480;DHT22;55469;48.934;12.050;2022-10-10T07:41:11;10.50;91.20
68480;DHT22;55469;48.934;12.050;2022-10-10T07:43:38;10.50;91.20
68480;DHT22;55469;48.934;12.050;2022-10-10T07:46:05;10.50;91.60
68480;DHT22;55469;48.934;12.050;2022-10-10T07:48:37;10.50;91.10
68480;DHT22;55469;48.934;12.050;2022-10-10T07:51:05;10.50;91.10
68480;DHT22;55469;48.934;12.050;2022-10-10T07:53:31;10.50;91.10
68480;DHT22;55469;48.934;12.050;2022-10-10T07:55:57;10.60;91.10
68480;DHT22;55469;48.934;12.050;2022-10-10T07:58:22;10.50;91.10
68480;DHT22;55469;48.934;12.050;2022-10-10T08:00:48;10.60;91.10
68480;DHT22;55469;48.934;12.050;2022-10-10T08:03:14;10.60;91.10
68480;DHT22;55469;48.934;12.050;2022-10-10T08:05:43;10.60;91.00
68480;DHT22;55469;48.934;12.050;2022-10-10T08:08:11;10.60;91.00
68480;DHT22;55469;48.934;12.050;2022-10-10T08:10:41;10.60;91.00
68480;DHT22;55469;48.934;12.050;2022-10-10T08:13:07;10.60;91.00
68480;DHT22;55469;48.934;12.050;2022-10-10T08:15:32;10.60;91.00
68480;DHT22;55469;48.934;12.050;2022-10-10T08:17:58;10.60;91.00
68480;DHT22;55469;48.934;12.050;2022-10-10T08:20:24;10.60;91.00
68480;DHT22;55469;48.934;12.050;2022-10-10T08:22:50;10.60;91.00
68480;DHT22;55469;48.934;12.050;2022-10-10T08:25:15;10.60;91.00
68480;DHT22;55469;48.934;12.050;2022-10-10T08:27:41;10.60;90.90
68480;DHT22;55469;48.934;12.050;2022-10-10T08:30:07;10.60;90.90
68480;DHT22;55469;48.934;12.050;2022-10-10T08:32:33;10.70;90.90
68480;DHT22;55469;48.934;12.050;2022-10-10T08:34:59;10.70;90.90
68480;DHT22;55469;48.934;12.050;2022-10-10T08:37:25;10.70;91.00
68480;DHT22;55469;48.934;12.050;2022-10-10T08:39:50;10.70;90.90
68480;DHT22;55469;48.934;12.050;2022-10-10T08:42:32;10.70;90.90
68480;DHT22;55469;48.934;12.050;2022-10-10T08:45:10;10.70;91.30
68480;DHT22;55469;48.934;12.050;2022-10-10T08:53:30;10.70;90.80
68480;DHT22;55469;48.934;12.050;2022-10-10T08:56:00;10.70;90.80
68480;DHT22;55469;48.934;12.050;2022-10-10T08:58:32;10.70;90.80
68480;DHT22;55469;48.934;12.050;2022-10-10T09:03:46;10.80;90.80
68480;DHT22;55469;48.934;12.050;2022-10-10T09:17:35;10.80;90.80
68480;DHT22;55469;48.934;12.050;2022-10-10T09:23:03;10.90;90.80
68480;DHT22;55469;48.934;12.050;2022-10-10T09:25:46;10.90;90.70
68480;DHT22;55469;48.934;12.050;2022-10-10T09:31:27;10.90;90.70
68480;DHT22;55469;48.934;12.050;2022-10-10T09:34:14;10.90;91.20
68480;DHT22;55469;48.934;12.050;2022-10-10T09:36:44;10.90;90.70
68480;DHT22;55469;48.934;12.050;2022-10-10T09:42:28;10.90;90.70
68480;DHT22;55469;48.934;12.050;2022-10-10T09:44:58;10.90;90.70
68480;DHT22;55469;48.934;12.050;2022-10-10T09:47:24;10.90;90.70
68480;DHT22;55469;48.934;12.050;2022-10-10T09:49:50;10.90;90.70
68480;DHT22;55469;48.934;12.050;2022-10-10T09:54:56;11.00;90.60
68480;DHT22;55469;48.934;12.050;2022-10-10T09:57:27;11.00;90.70
68480;DHT22;55469;48.934;12.050;2022-10-10T09:59:56;11.00;90.70
68480;DHT22;55469;48.934;12.050;2022-10-10T10:02:24;11.00;90.70
68480;DHT22;55469;48.934;12.050;2022-10-10T10:04:51;11.00;90.70
68480;DHT22;55469;48.934;12.050;2022-10-10T10:07:25;11.00;90.60
68480;DHT22;55469;48.934;12.050;2022-10-10T10:09:57;11.00;90.60
68480;DHT22;55469;48.934;12.050;2022-10-10T10:12:29;11.10;90.70
68480;DHT22;55469;48.934;12.050;2022-10-10T10:15:05;11.10;90.60
68480;DHT22;55469;48.934;12.050;2022-10-10T10:17:40;11.10;90.60
68480;DHT22;55469;48.934;12.050;2022-10-10T10:22:54;11.10;90.60
68480;DHT22;55469;48.934;12.050;2022-10-10T10:28:19;11.20;90.50
68480;DHT22;55469;48.934;12.050;2022-10-10T10:30:46;11.20;90.60
68480;DHT22;55469;48.934;12.050;2022-10-10T10:33:37;11.20;90.60
68480;DHT22;55469;48.934;12.050;2022-10-10T10:36:42;11.20;90.60
68480;DHT22;55469;48.934;12.050;2022-10-10T10:42:37;11.20;90.50
68480;DHT22;55469;48.934;12.050;2022-10-10T10:48:26;11.30;90.50
68480;DHT22;55469;48.934;12.050;2022-10-10T10:50:59;11.30;90.40
68480;DHT22;55469;48.934;12.050;2022-10-10T10:53:43;11.30;90.40
68480;DHT22;55469;48.934;12.050;2022-10-10T10:59:48;11.40;90.30
68480;DHT22;55469;48.934;12.050;2022-10-10T11:10:58;11.50;90.40
68480;DHT22;55469;48.934;12.050;2022-10-10T11:16:37;11.50;90.40
68480;DHT22;55469;48.934;12.050;2022-10-10T11:19:10;11.50;90.30
68480;DHT22;55469;48.934;12.050;2022-10-10T11:24:57;11.50;90.30
68480;DHT22;55469;48.934;12.050;2022-10-10T11:27:38;11.60;90.20
68480;DHT22;55469;48.934;12.050;2022-10-10T11:30:18;11.60;90.20
68480;DHT22;55469;48.934;12.050;2022-10-10T11:32:51;11.60;90.20
68480;DHT22;55469;48.934;12.050;2022-10-10T11:35:26;11.70;90.10
68480;DHT22;55469;48.934;12.050;2022-10-10T11:38:19;11.70;90.20
68480;DHT22;55469;48.934;12.050;2022-10-10T11:41:04;11.70;90.20
68480;DHT22;55469;48.934;12.050;2022-10-10T11:43:46;11.70;90.20
68480;DHT22;55469;48.934;12.050;2022-10-10T11:46:42;11.80;90.10
68480;DHT22;55469;48.934;12.050;2022-10-10T11:52:02;11.90;90.00
68480;DHT22;55469;48.934;12.050;2022-10-10T11:55:12;12.00;90.00
68480;DHT22;55469;48.934;12.050;2022-10-10T11:57:46;12.00;89.90
68480;DHT22;55469;48.934;12.050;2022-10-10T12:00:17;12.10;89.80
68480;DHT22;55469;48.934;12.050;2022-10-10T12:02:45;12.10;89.60
68480;DHT22;55469;48.934;12.050;2022-10-10T12:05:23;12.10;89.40
68480;DHT22;55469;48.934;12.050;2022-10-10T12:16:11;12.20;89.40
68480;DHT22;55469;48.934;12.050;2022-10-10T12:18:43;12.20;89.60
68480;DHT22;55469;48.934;12.050;2022-10-10T12:21:18;12.20;89.60
68480;DHT22;55469;48.934;12.050;2022-10-10T12:23:49;12.20;89.60
68480;DHT22;55469;48.934;12.050;2022-10-10T12:26:25;12.20;89.60
68480;DHT22;55469;48.934;12.050;2022-10-10T12:30:10;12.20;89.60
68480;DHT22;55469;48.934;12.050;2022-10-10T12:32:41;12.30;89.60
68480;DHT22;55469;48.934;12.050;2022-10-10T12:41:12;12.30;89.60
68480;DHT22;55469;48.934;12.050;2022-10-10T12:44:17;12.30;89.50
68480;DHT22;55469;48.934;12.050;2022-10-10T12:46:39;12.30;89.50
68480;DHT22;55469;48.934;12.050;2022-10-10T12:49:19;12.30;89.50
68480;DHT22;55469;48.934;12.050;2022-10-10T12:52:10;12.30;89.50
68480;DHT22;55469;48.934;12.050;2022-10-10T12:54:40;12.40;89.70
68480;DHT22;55469;48.934;12.050;2022-10-10T12:57:12;12.40;89.60
68480;DHT22;55469;48.934;12.050;2022-10-10T12:59:41;12.40;89.50
68480;DHT22;55469;48.934;12.050;2022-10-10T13:02:26;12.40;89.40
68480;DHT22;55469;48.934;12.050;2022-10-10T13:04:56;12.50;89.40
68480;DHT22;55469;48.934;12.050;2022-10-10T13:07:24;12.50;89.50
68480;DHT22;55469;48.934;12.050;2022-10-10T13:09:52;12.50;89.40
68480;DHT22;55469;48.934;12.050;2022-10-10T13:12:29;12.50;89.30
68480;DHT22;55469;48.934;12.050;2022-10-10T13:14:57;12.50;89.40
68480;DHT22;55469;48.934;12.050;2022-10-10T13:20:00;12.50;89.40
68480;DHT22;55469;48.934;12.050;2022-10-10T13:22:29;12.50;89.40
68480;DHT22;55469;48.934;12.050;2022-10-10T13:24:55;12.60;89.40
68480;DHT22;55469;48.934;12.050;2022-10-10T13:27:26;12.60;89.40
68480;DHT22;55469;48.934;12.050;2022-10-10T13:29:54;12.60;89.30
68480;DHT22;55469;48.934;12.050;2022-10-10T13:32:23;12.60;89.20
68480;DHT22;55469;48.934;12.050;2022-10-10T13:35:06;12.60;89.30
68480;DHT22;55469;48.934;12.050;2022-10-10T13:37:42;12.60;89.40
68480;DHT22;55469;48.934;12.050;2022-10-10T13:40:17;12.60;90.20
68480;DHT22;55469;48.934;12.050;2022-10-10T13:42:46;12.60;89.50
68480;DHT22;55469;48.934;12.050;2022-10-10T14:06:59;12.80;89.50
68480;DHT22;55469;48.934;12.050;2022-10-10T14:09:33;12.70;89.30
68480;DHT22;55469;48.934;12.050;2022-10-10T14:12:07;12.80;89.30
68480;DHT22;55469;48.934;12.050;2022-10-10T14:14:43;12.80;89.40
68480;DHT22;55469;48.934;12.050;2022-10-10T14:17:13;12.80;89.30
68480;DHT22;55469;48.934;12.050;2022-10-10T14:19:40;12.80;89.20
68480;DHT22;55469;48.934;12.050;2022-10-10T14:22:06;12.80;90.10
68480;DHT22;55469;48.934;12.050;2022-10-10T14:24:32;12.80;89.50
68480;DHT22;55469;48.934;12.050;2022-10-10T14:29:46;12.80;89.70
68480;DHT22;55469;48.934;12.050;2022-10-10T14:32:13;12.80;89.50
68480;DHT22;55469;48.934;12.050;2022-10-10T14:34:39;12.80;89.60
68480;DHT22;55469;48.934;12.050;2022-10-10T14:37:27;12.90;89.70
68480;DHT22;55469;48.934;12.050;2022-10-10T14:39:54;12.90;90.00
68480;DHT22;55469;48.934;12.050;2022-10-10T14:42:21;12.80;90.00
68480;DHT22;55469;48.934;12.050;2022-10-10T14:44:48;12.80;90.00
68480;DHT22;55469;48.934;12.050;2022-10-10T14:47:21;12.80;90.00
68480;DHT22;55469;48.934;12.050;2022-10-10T14:49:48;12.80;90.00
68480;DHT22;55469;48.934;12.050;2022-10-10T14:52:14;12.80;90.00
68480;DHT22;55469;48.934;12.050;2022-10-10T14:54:40;12.80;90.10
68480;DHT22;55469;48.934;12.050;2022-10-10T14:57:06;12.80;90.00
68480;DHT22;55469;48.934;12.050;2022-10-10T14:59:33;12.80;90.00
68480;DHT22;55469;48.934;12.050;2022-10-10T15:01:59;12.90;90.00
68480;DHT22;55469;48.934;12.050;2022-10-10T15:04:25;12.90;90.00
68480;DHT22;55469;48.934;12.050;2022-10-10T15:06:51;12.90;90.00
68480;DHT22;55469;48.934;12.050;2022-10-10T15:09:16;12.90;90.10
68480;DHT22;55469;48.934;12.050;2022-10-10T15:11:42;12.90;90.20
68480;DHT22;55469;48.934;12.050;2022-10-10T15:14:08;12.90;90.20
68480;DHT22;55469;48.934;12.050;2022-10-10T15:16:33;12.80;90.20
68480;DHT22;55469;48.934;12.050;2022-10-10T15:18:59;12.80;90.20
68480;DHT22;55469;48.934;12.050;2022-10-10T15:21:25;12.80;90.30
68480;DHT22;55469;48.934;12.050;2022-10-10T15:23:53;12.90;90.30
68480;DHT22;55469;48.934;12.050;2022-10-10T15:26:20;12.80;90.30
68480;DHT22;55469;48.934;12.050;2022-10-10T15:28:47;12.90;90.30
68480;DHT22;55469;48.934;12.050;2022-10-10T15:31:13;12.90;90.30
68480;DHT22;55469;48.934;12.050;2022-10-10T15:33:39;12.90;90.30
68480;DHT22;55469;48.934;12.050;2022-10-10T15:36:06;12.90;90.30
68480;DHT22;55469;48.934;12.050;2022-10-10T15:38:33;12.90;90.40
68480;DHT22;55469;48.934;12.050;2022-10-10T15:41:05;12.80;90.20
68480;DHT22;55469;48.934;12.050;2022-10-10T15:43:47;12.90;90.30
68480;DHT22;55469;48.934;12.050;2022-10-10T15:46:26;12.90;90.30
68480;DHT22;55469;48.934;12.050;2022-10-10T15:48:53;12.90;90.30
68480;DHT22;55469;48.934;12.050;2022-10-10T15:51:19;12.90;90.40
68480;DHT22;55469;48.934;12.050;2022-10-10T15:53:46;12.90;90.50
68480;DHT22;55469;48.934;12.050;2022-10-10T15:56:14;12.90;90.50
68480;DHT22;55469;48.934;12.050;2022-10-10T15:58:41;12.90;90.50
68480;DHT22;55469;48.934;12.050;2022-10-10T16:01:11;12.90;90.50
68480;DHT22;55469;48.934;12.050;2022-10-10T16:03:42;12.90;90.60
68480;DHT22;55469;48.934;12.050;2022-10-10T16:06:09;12.90;90.60
68480;DHT22;55469;48.934;12.050;2022-10-10T16:08:37;12.90;90.60
68480;DHT22;55469;48.934;12.050;2022-10-10T16:11:05;12.90;90.60
68480;DHT22;55469;48.934;12.050;2022-10-10T16:13:37;12.90;90.60
68480;DHT22;55469;48.934;12.050;2022-10-10T16:16:05;12.90;90.60
68480;DHT22;55469;48.934;12.050;2022-10-10T16:18:34;13.00;90.50
68480;DHT22;55469;48.934;12.050;2022-10-10T16:21:04;12.90;90.60
68480;DHT22;55469;48.934;12.050;2022-10-10T16:23:30;13.00;90.50
68480;DHT22;55469;48.934;12.050;2022-10-10T16:26:18;12.90;90.50
68480;DHT22;55469;48.934;12.050;2022-10-10T16:28:46;13.00;90.50
68480;DHT22;55469;48.934;12.050;2022-10-10T16:31:14;13.00;90.70
68480;DHT22;55469;48.934;12.050;2022-10-10T16:33:42;12.90;90.70
68480;DHT22;55469;48.934;12.050;2022-10-10T16:36:14;12.90;90.70
68480;DHT22;55469;48.934;12.050;2022-10-10T16:38:42;12.90;90.80
68480;DHT22;55469;48.934;12.050;2022-10-10T16:41:11;13.00;90.80
68480;DHT22;55469;48.934;12.050;2022-10-10T16:43:38;12.90;90.80
68480;DHT22;55469;48.934;12.050;2022-10-10T16:46:07;12.90;90.90
68480;DHT22;55469;48.934;12.050;2022-10-10T16:48:35;13.00;90.70
68480;DHT22;55469;48.934;12.050;2022-10-10T16:51:04;12.90;90.70
68480;DHT22;55469;48.934;12.050;2022-10-10T16:53:37;12.90;90.70
68480;DHT22;55469;48.934;12.050;2022-10-10T16:56:06;12.90;90.70
68480;DHT22;55469;48.934;12.050;2022-10-10T16:58:33;13.00;90.70
68480;DHT22;55469;48.934;12.050;2022-10-10T17:01:06;12.90;90.70
68480;DHT22;55469;48.934;12.050;2022-10-10T17:03:33;13.00;90.70
68480;DHT22;55469;48.934;12.050;2022-10-10T17:06:03;12.90;90.70
68480;DHT22;55469;48.934;12.050;2022-10-10T17:08:31;13.00;91.30
68480;DHT22;55469;48.934;12.050;2022-10-10T17:10:58;13.00;90.90
68480;DHT22;55469;48.934;12.050;2022-10-10T17:13:25;12.90;90.90
68480;DHT22;55469;48.934;12.050;2022-10-10T17:15:51;12.90;91.00
68480;DHT22;55469;48.934;12.050;2022-10-10T17:18:17;12.90;91.00
68480;DHT22;55469;48.934;12.050;2022-10-10T17:20:44;12.90;90.90
68480;DHT22;55469;48.934;12.050;2022-10-10T17:23:12;12.90;90.80
68480;DHT22;55469;48.934;12.050;2022-10-10T17:25:43;13.00;90.80
68480;DHT22;55469;48.934;12.050;2022-10-10T17:28:11;13.00;90.80
68480;DHT22;55469;48.934;12.050;2022-10-10T17:30:46;13.00;91.00
68480;DHT22;55469;48.934;12.050;2022-10-10T17:33:13;13.00;90.80
68480;DHT22;55469;48.934;12.050;2022-10-10T17:35:41;13.00;90.80
68480;DHT22;55469;48.934;12.050;2022-10-10T17:38:08;13.00;90.80
68480;DHT22;55469;48.934;12.050;2022-10-10T17:40:35;13.00;90.80
68480;DHT22;55469;48.934;12.050;2022-10-10T17:43:04;13.00;90.80